sensor_id;sensor_type;location;lat;lon;timestamp;P1;durP1;ratioP1;P2;durP2;ratioP2
64619;SDS011;51029;51.058;13.826;2023-07-24T00:00:19;4.20;;;3.40;;
64619;SDS011;51029;51.058;13.826;2023-07-24T00:02:45;4.87;;;3.37;;
64619;SDS011;51029;51.058;13.826;2023-07-24T00:05:10;5.67;;;3.70;;
64619;SDS011;51029;51.058;13.826;2023-07-24T00:07:36;4.77;;;3.40;;
64619;SDS011;51029;51.058;13.826;2023-07-24T00:10:02;3.50;;;3.20;;
64619;SDS011;51029;51.058;13.826;2023-07-24T00:12:28;4.37;;;3.23;;
64619;SDS011;51029;51.058;13.826;2023-07-24T00:14:53;3.77;;;3.33;;
64619;SDS011;51029;51.058;13.826;2023-07-24T00:17:19;4.67;;;3.60;;
64619;SDS011;51029;51.058;13.826;2023-07-24T00:19:45;5.77;;;3.27;;
64619;SDS011;51029;51.058;13.826;2023-07-24T00:22:10;3.90;;;3.20;;
64619;SDS011;51029;51.058;13.826;2023-07-24T00:24:36;4.43;;;3.80;;
64619;SDS011;51029;51.058;13.826;2023-07-24T00:27:01;3.80;;;3.47;;
64619;SDS011;51029;51.058;13.826;2023-07-24T00:29:27;6.87;;;3.87;;
64619;SDS011;51029;51.058;13.826;2023-07-24T00:31:53;4.03;;;3.63;;
64619;SDS011;51029;51.058;13.826;2023-07-24T00:34:19;3.43;;;3.13;;
64619;SDS011;51029;51.058;13.826;2023-07-24T00:36:44;3.60;;;3.23;;
64619;SDS011;51029;51.058;13.826;2023-07-24T00:39:10;4.20;;;3.40;;
64619;SDS011;51029;51.058;13.826;2023-07-24T00:41:35;4.20;;;3.37;;
64619;SDS011;51029;51.058;13.826;2023-07-24T00:44:01;4.63;;;3.60;;
64619;SDS011;51029;51.058;13.826;2023-07-24T00:46:26;4.47;;;3.67;;
64619;SDS011;51029;51.058;13.826;2023-07-24T00:48:56;4.40;;;3.37;;
64619;SDS011;51029;51.058;13.826;2023-07-24T00:51:23;4.27;;;3.40;;
64619;SDS011;51029;51.058;13.826;2023-07-24T00:53:49;4.30;;;3.70;;
64619;SDS011;51029;51.058;13.826;2023-07-24T00:56:14;5.13;;;3.60;;
64619;SDS011;51029;51.058;13.826;2023-07-24T00:58:40;4.50;;;3.60;;
64619;SDS011;51029;51.058;13.826;2023-07-24T01:01:05;4.00;;;3.60;;
64619;SDS011;51029;51.058;13.826;2023-07-24T01:03:32;4.20;;;3.40;;
64619;SDS011;51029;51.058;13.826;2023-07-24T01:05:59;4.97;;;3.40;;
64619;SDS011;51029;51.058;13.826;2023-07-24T01:08:27;5.77;;;3.67;;
64619;SDS011;51029;51.058;13.826;2023-07-24T01:10:53;4.47;;;3.70;;
64619;SDS011;51029;51.058;13.826;2023-07-24T01:13:22;3.50;;;3.20;;
64619;SDS011;51029;51.058;13.826;2023-07-24T01:16:00;4.50;;;3.40;;
64619;SDS011;51029;51.058;13.826;2023-07-24T01:18:31;3.90;;;3.43;;
64619;SDS011;51029;51.058;13.826;2023-07-24T01:20:57;4.17;;;3.67;;
64619;SDS011;51029;51.058;13.826;2023-07-24T01:26:02;3.83;;;3.40;;
64619;SDS011;51029;51.058;13.826;2023-07-24T01:28:29;4.00;;;3.60;;
64619;SDS011;51029;51.058;13.826;2023-07-24T01:30:55;3.70;;;3.30;;
64619;SDS011;51029;51.058;13.826;2023-07-24T01:33:21;3.70;;;3.40;;
64619;SDS011;51029;51.058;13.826;2023-07-24T01:35:51;5.40;;;3.57;;
64619;SDS011;51029;51.058;13.826;2023-07-24T01:38:19;5.47;;;3.23;;
64619;SDS011;51029;51.058;13.826;2023-07-24T01:40:47;3.93;;;3.40;;
64619;SDS011;51029;51.058;13.826;2023-07-24T01:43:14;3.97;;;3.40;;
64619;SDS011;51029;51.058;13.826;2023-07-24T01:45:39;4.20;;;3.80;;
64619;SDS011;51029;51.058;13.826;2023-07-24T01:48:05;5.37;;;3.77;;
64619;SDS011;51029;51.058;13.826;2023-07-24T01:50:31;4.93;;;3.53;;
64619;SDS011;51029;51.058;13.826;2023-07-24T01:52:57;6.67;;;3.43;;
64619;SDS011;51029;51.058;13.826;2023-07-24T01:55:22;5.03;;;4.00;;
64619;SDS011;51029;51.058;13.826;2023-07-24T01:57:48;3.53;;;3.23;;
64619;SDS011;51029;51.058;13.826;2023-07-24T02:00:13;4.00;;;3.17;;
64619;SDS011;51029;51.058;13.826;2023-07-24T02:02:39;4.73;;;3.50;;
64619;SDS011;51029;51.058;13.826;2023-07-24T02:05:05;3.50;;;3.20;;
64619;SDS011;51029;51.058;13.826;2023-07-24T02:07:30;4.03;;;3.60;;
64619;SDS011;51029;51.058;13.826;2023-07-24T02:09:56;5.10;;;3.60;;
64619;SDS011;51029;51.058;13.826;2023-07-24T02:12:22;6.43;;;3.80;;
64619;SDS011;51029;51.058;13.826;2023-07-24T02:14:47;4.83;;;3.70;;
64619;SDS011;51029;51.058;13.826;2023-07-24T02:17:15;4.03;;;3.60;;
64619;SDS011;51029;51.058;13.826;2023-07-24T02:19:40;4.20;;;3.57;;
64619;SDS011;51029;51.058;13.826;2023-07-24T02:22:06;5.07;;;3.57;;
64619;SDS011;51029;51.058;13.826;2023-07-24T02:24:32;4.87;;;3.60;;
64619;SDS011;51029;51.058;13.826;2023-07-24T02:26:57;3.93;;;3.53;;
64619;SDS011;51029;51.058;13.826;2023-07-24T02:29:23;3.80;;;3.40;;
64619;SDS011;51029;51.058;13.826;2023-07-24T02:31:49;6.07;;;3.20;;
64619;SDS011;51029;51.058;13.826;2023-07-24T02:34:15;4.80;;;3.30;;
64619;SDS011;51029;51.058;13.826;2023-07-24T02:36:41;6.23;;;3.80;;
64619;SDS011;51029;51.058;13.826;2023-07-24T02:39:06;3.87;;;3.43;;
64619;SDS011;51029;51.058;13.826;2023-07-24T02:41:32;4.43;;;3.80;;
64619;SDS011;51029;51.058;13.826;2023-07-24T02:43:58;4.63;;;3.60;;
64619;SDS011;51029;51.058;13.826;2023-07-24T02:46:23;4.43;;;3.60;;
64619;SDS011;51029;51.058;13.826;2023-07-24T02:48:50;4.80;;;3.67;;
64619;SDS011;51029;51.058;13.826;2023-07-24T02:51:16;5.33;;;3.70;;
64619;SDS011;51029;51.058;13.826;2023-07-24T02:53:42;4.40;;;3.53;;
64619;SDS011;51029;51.058;13.826;2023-07-24T02:56:07;4.23;;;3.20;;
64619;SDS011;51029;51.058;13.826;2023-07-24T02:58:33;5.90;;;3.60;;
64619;SDS011;51029;51.058;13.826;2023-07-24T03:01:05;5.57;;;4.20;;
64619;SDS011;51029;51.058;13.826;2023-07-24T03:03:31;5.40;;;3.90;;
64619;SDS011;51029;51.058;13.826;2023-07-24T03:05:58;5.17;;;3.63;;
64619;SDS011;51029;51.058;13.826;2023-07-24T03:08:23;5.30;;;3.67;;
64619;SDS011;51029;51.058;13.826;2023-07-24T03:10:49;4.67;;;3.43;;
64619;SDS011;51029;51.058;13.826;2023-07-24T03:13:14;5.60;;;3.80;;
64619;SDS011;51029;51.058;13.826;2023-07-24T03:15:40;4.33;;;3.67;;
64619;SDS011;51029;51.058;13.826;2023-07-24T03:18:05;7.70;;;3.87;;
64619;SDS011;51029;51.058;13.826;2023-07-24T03:20:31;5.43;;;3.50;;
64619;SDS011;51029;51.058;13.826;2023-07-24T03:22:56;5.33;;;3.63;;
64619;SDS011;51029;51.058;13.826;2023-07-24T03:25:22;5.63;;;3.97;;
64619;SDS011;51029;51.058;13.826;2023-07-24T03:27:48;5.20;;;3.83;;
64619;SDS011;51029;51.058;13.826;2023-07-24T03:30:13;7.17;;;3.80;;
64619;SDS011;51029;51.058;13.826;2023-07-24T03:32:39;7.97;;;4.03;;
64619;SDS011;51029;51.058;13.826;2023-07-24T03:35:05;5.17;;;3.73;;
64619;SDS011;51029;51.058;13.826;2023-07-24T03:37:31;6.90;;;3.97;;
64619;SDS011;51029;51.058;13.826;2023-07-24T03:39:59;4.50;;;3.97;;
64619;SDS011;51029;51.058;13.826;2023-07-24T03:42:25;4.90;;;3.90;;
64619;SDS011;51029;51.058;13.826;2023-07-24T03:44:52;6.37;;;3.80;;
64619;SDS011;51029;51.058;13.826;2023-07-24T03:47:17;5.73;;;3.77;;
64619;SDS011;51029;51.058;13.826;2023-07-24T03:49:43;5.70;;;3.63;;
64619;SDS011;51029;51.058;13.826;2023-07-24T03:52:08;7.03;;;3.67;;
64619;SDS011;51029;51.058;13.826;2023-07-24T03:54:34;5.50;;;4.10;;
64619;SDS011;51029;51.058;13.826;2023-07-24T03:56:59;5.37;;;3.87;;
64619;SDS011;51029;51.058;13.826;2023-07-24T03:59:25;6.03;;;3.83;;
64619;SDS011;51029;51.058;13.826;2023-07-24T04:01:50;6.03;;;4.13;;
64619;SDS011;51029;51.058;13.826;2023-07-24T04:04:16;5.97;;;3.90;;
64619;SDS011;51029;51.058;13.826;2023-07-24T04:06:41;7.17;;;3.93;;
64619;SDS011;51029;51.058;13.826;2023-07-24T04:09:07;5.40;;;3.63;;
64619;SDS011;51029;51.058;13.826;2023-07-24T04:11:32;5.23;;;3.90;;
64619;SDS011;51029;51.058;13.826;2023-07-24T04:13:58;7.10;;;4.60;;
64619;SDS011;51029;51.058;13.826;2023-07-24T04:16:23;5.03;;;4.53;;
64619;SDS011;51029;51.058;13.826;2023-07-24T04:18:49;6.97;;;4.30;;
64619;SDS011;51029;51.058;13.826;2023-07-24T04:21:15;7.20;;;3.77;;
64619;SDS011;51029;51.058;13.826;2023-07-24T04:23:40;7.57;;;4.03;;
64619;SDS011;51029;51.058;13.826;2023-07-24T04:26:06;5.13;;;4.03;;
64619;SDS011;51029;51.058;13.826;2023-07-24T04:28:31;6.00;;;4.00;;
64619;SDS011;51029;51.058;13.826;2023-07-24T04:30:59;12.10;;;9.27;;
64619;SDS011;51029;51.058;13.826;2023-07-24T04:33:26;11.43;;;8.47;;
64619;SDS011;51029;51.058;13.826;2023-07-24T04:35:52;5.67;;;3.87;;
64619;SDS011;51029;51.058;13.826;2023-07-24T04:38:19;13.17;;;11.73;;
64619;SDS011;51029;51.058;13.826;2023-07-24T04:40:44;42.23;;;33.80;;
64619;SDS011;51029;51.058;13.826;2023-07-24T04:43:10;15.83;;;12.17;;
64619;SDS011;51029;51.058;13.826;2023-07-24T04:45:36;8.53;;;5.97;;
64619;SDS011;51029;51.058;13.826;2023-07-24T04:48:01;6.67;;;3.77;;
64619;SDS011;51029;51.058;13.826;2023-07-24T04:50:27;6.20;;;4.03;;
64619;SDS011;51029;51.058;13.826;2023-07-24T04:52:52;7.43;;;4.50;;
64619;SDS011;51029;51.058;13.826;2023-07-24T04:55:18;8.37;;;4.03;;
64619;SDS011;51029;51.058;13.826;2023-07-24T04:57:43;7.37;;;4.60;;
64619;SDS011;51029;51.058;13.826;2023-07-24T05:00:09;9.40;;;4.37;;
64619;SDS011;51029;51.058;13.826;2023-07-24T05:02:35;7.20;;;4.70;;
64619;SDS011;51029;51.058;13.826;2023-07-24T05:05:01;8.60;;;4.67;;
64619;SDS011;51029;51.058;13.826;2023-07-24T05:07:26;10.53;;;4.80;;
64619;SDS011;51029;51.058;13.826;2023-07-24T05:09:52;20.90;;;13.03;;
64619;SDS011;51029;51.058;13.826;2023-07-24T05:12:17;10.47;;;7.10;;
64619;SDS011;51029;51.058;13.826;2023-07-24T05:14:43;7.07;;;4.70;;
64619;SDS011;51029;51.058;13.826;2023-07-24T05:17:08;8.37;;;4.50;;
64619;SDS011;51029;51.058;13.826;2023-07-24T05:19:34;11.17;;;4.83;;
64619;SDS011;51029;51.058;13.826;2023-07-24T05:21:59;12.70;;;5.30;;
64619;SDS011;51029;51.058;13.826;2023-07-24T05:24:25;7.27;;;3.90;;
64619;SDS011;51029;51.058;13.826;2023-07-24T05:26:50;7.10;;;4.57;;
64619;SDS011;51029;51.058;13.826;2023-07-24T05:29:16;5.50;;;4.10;;
64619;SDS011;51029;51.058;13.826;2023-07-24T05:31:41;4.33;;;3.67;;
64619;SDS011;51029;51.058;13.826;2023-07-24T05:34:07;6.17;;;4.07;;
64619;SDS011;51029;51.058;13.826;2023-07-24T05:36:33;7.63;;;4.33;;
64619;SDS011;51029;51.058;13.826;2023-07-24T05:38:58;8.77;;;4.20;;
64619;SDS011;51029;51.058;13.826;2023-07-24T05:41:24;7.07;;;4.20;;
64619;SDS011;51029;51.058;13.826;2023-07-24T05:43:49;7.83;;;4.07;;
64619;SDS011;51029;51.058;13.826;2023-07-24T05:46:15;6.20;;;4.33;;
64619;SDS011;51029;51.058;13.826;2023-07-24T05:48:41;5.70;;;3.53;;
64619;SDS011;51029;51.058;13.826;2023-07-24T05:51:06;7.33;;;4.17;;
64619;SDS011;51029;51.058;13.826;2023-07-24T05:53:32;5.57;;;4.03;;
64619;SDS011;51029;51.058;13.826;2023-07-24T05:55:58;7.53;;;3.92;;
64619;SDS011;51029;51.058;13.826;2023-07-24T05:58:24;7.40;;;6.67;;
64619;SDS011;51029;51.058;13.826;2023-07-24T06:00:50;5.17;;;3.50;;
64619;SDS011;51029;51.058;13.826;2023-07-24T06:03:16;5.23;;;4.37;;
64619;SDS011;51029;51.058;13.826;2023-07-24T06:05:41;4.90;;;4.03;;
64619;SDS011;51029;51.058;13.826;2023-07-24T06:08:07;4.60;;;3.60;;
64619;SDS011;51029;51.058;13.826;2023-07-24T06:10:33;6.23;;;4.00;;
64619;SDS011;51029;51.058;13.826;2023-07-24T06:12:59;6.60;;;3.97;;
64619;SDS011;51029;51.058;13.826;2023-07-24T06:15:25;5.77;;;3.80;;
64619;SDS011;51029;51.058;13.826;2023-07-24T06:17:50;4.67;;;3.87;;
64619;SDS011;51029;51.058;13.826;2023-07-24T06:20:16;6.60;;;4.30;;
64619;SDS011;51029;51.058;13.826;2023-07-24T06:22:42;6.23;;;4.23;;
64619;SDS011;51029;51.058;13.826;2023-07-24T06:25:08;4.93;;;3.50;;
64619;SDS011;51029;51.058;13.826;2023-07-24T06:27:33;6.17;;;4.00;;
64619;SDS011;51029;51.058;13.826;2023-07-24T06:29:59;6.60;;;4.03;;
64619;SDS011;51029;51.058;13.826;2023-07-24T06:32:24;7.37;;;4.10;;
64619;SDS011;51029;51.058;13.826;2023-07-24T06:34:50;5.70;;;4.00;;
64619;SDS011;51029;51.058;13.826;2023-07-24T06:37:16;4.50;;;3.80;;
64619;SDS011;51029;51.058;13.826;2023-07-24T06:39:41;5.23;;;4.10;;
64619;SDS011;51029;51.058;13.826;2023-07-24T06:42:07;5.10;;;4.00;;
64619;SDS011;51029;51.058;13.826;2023-07-24T06:44:32;6.00;;;4.53;;
64619;SDS011;51029;51.058;13.826;2023-07-24T06:46:58;6.13;;;4.00;;
64619;SDS011;51029;51.058;13.826;2023-07-24T06:49:23;6.30;;;4.23;;
64619;SDS011;51029;51.058;13.826;2023-07-24T06:51:49;6.07;;;4.13;;
64619;SDS011;51029;51.058;13.826;2023-07-24T06:54:14;7.40;;;4.10;;
64619;SDS011;51029;51.058;13.826;2023-07-24T06:56:40;6.03;;;4.30;;
64619;SDS011;51029;51.058;13.826;2023-07-24T06:59:05;5.10;;;4.53;;
64619;SDS011;51029;51.058;13.826;2023-07-24T07:01:31;4.90;;;4.00;;
64619;SDS011;51029;51.058;13.826;2023-07-24T07:03:57;7.67;;;4.47;;
64619;SDS011;51029;51.058;13.826;2023-07-24T07:06:22;6.73;;;4.13;;
64619;SDS011;51029;51.058;13.826;2023-07-24T07:08:48;5.47;;;4.00;;
64619;SDS011;51029;51.058;13.826;2023-07-24T07:11:13;5.40;;;3.97;;
64619;SDS011;51029;51.058;13.826;2023-07-24T07:13:39;4.97;;;4.00;;
64619;SDS011;51029;51.058;13.826;2023-07-24T07:16:04;4.70;;;3.90;;
64619;SDS011;51029;51.058;13.826;2023-07-24T07:18:30;6.53;;;4.60;;
64619;SDS011;51029;51.058;13.826;2023-07-24T07:20:55;4.53;;;4.13;;
64619;SDS011;51029;51.058;13.826;2023-07-24T07:23:21;4.90;;;3.83;;
64619;SDS011;51029;51.058;13.826;2023-07-24T07:25:47;7.20;;;4.30;;
64619;SDS011;51029;51.058;13.826;2023-07-24T07:28:14;4.47;;;4.07;;
64619;SDS011;51029;51.058;13.826;2023-07-24T07:30:41;4.57;;;3.80;;
64619;SDS011;51029;51.058;13.826;2023-07-24T07:33:07;5.50;;;4.30;;
64619;SDS011;51029;51.058;13.826;2023-07-24T07:35:33;5.77;;;4.30;;
64619;SDS011;51029;51.058;13.826;2023-07-24T07:37:59;5.67;;;4.20;;
64619;SDS011;51029;51.058;13.826;2023-07-24T07:40:26;6.70;;;4.03;;
64619;SDS011;51029;51.058;13.826;2023-07-24T07:42:52;5.00;;;4.47;;
64619;SDS011;51029;51.058;13.826;2023-07-24T07:45:18;7.17;;;4.27;;
64619;SDS011;51029;51.058;13.826;2023-07-24T07:47:44;5.03;;;4.23;;
64619;SDS011;51029;51.058;13.826;2023-07-24T07:50:10;5.73;;;4.50;;
64619;SDS011;51029;51.058;13.826;2023-07-24T07:52:36;4.80;;;4.10;;
64619;SDS011;51029;51.058;13.826;2023-07-24T07:55:01;5.20;;;3.70;;
64619;SDS011;51029;51.058;13.826;2023-07-24T07:57:27;4.87;;;3.93;;
64619;SDS011;51029;51.058;13.826;2023-07-24T07:59:52;5.10;;;3.93;;
64619;SDS011;51029;51.058;13.826;2023-07-24T08:02:18;4.60;;;4.20;;
64619;SDS011;51029;51.058;13.826;2023-07-24T08:04:44;5.73;;;4.00;;
64619;SDS011;51029;51.058;13.826;2023-07-24T08:07:09;5.83;;;4.37;;
64619;SDS011;51029;51.058;13.826;2023-07-24T08:09:35;6.23;;;4.30;;
64619;SDS011;51029;51.058;13.826;2023-07-24T08:12:03;5.57;;;4.13;;
64619;SDS011;51029;51.058;13.826;2023-07-24T08:14:29;4.60;;;4.10;;
64619;SDS011;51029;51.058;13.826;2023-07-24T08:16:55;4.57;;;4.10;;
64619;SDS011;51029;51.058;13.826;2023-07-24T08:19:20;5.80;;;4.03;;
64619;SDS011;51029;51.058;13.826;2023-07-24T08:21:46;5.30;;;3.93;;
64619;SDS011;51029;51.058;13.826;2023-07-24T08:24:12;4.70;;;4.00;;
64619;SDS011;51029;51.058;13.826;2023-07-24T08:26:37;5.50;;;3.93;;
64619;SDS011;51029;51.058;13.826;2023-07-24T08:29:03;5.10;;;4.57;;
64619;SDS011;51029;51.058;13.826;2023-07-24T08:31:30;6.87;;;4.20;;
64619;SDS011;51029;51.058;13.826;2023-07-24T08:33:55;4.67;;;4.23;;
64619;SDS011;51029;51.058;13.826;2023-07-24T08:36:21;4.20;;;3.80;;
64619;SDS011;51029;51.058;13.826;2023-07-24T08:38:46;5.17;;;4.00;;
64619;SDS011;51029;51.058;13.826;2023-07-24T08:41:13;5.70;;;4.50;;
64619;SDS011;51029;51.058;13.826;2023-07-24T08:43:40;5.17;;;4.03;;
64619;SDS011;51029;51.058;13.826;2023-07-24T08:46:07;4.57;;;4.10;;
64619;SDS011;51029;51.058;13.826;2023-07-24T08:48:34;5.20;;;4.20;;
64619;SDS011;51029;51.058;13.826;2023-07-24T08:51:02;4.80;;;4.40;;
64619;SDS011;51029;51.058;13.826;2023-07-24T08:53:28;4.90;;;4.05;;
64619;SDS011;51029;51.058;13.826;2023-07-24T08:55:56;5.10;;;4.40;;
64619;SDS011;51029;51.058;13.826;2023-07-24T08:58:22;6.57;;;4.30;;
64619;SDS011;51029;51.058;13.826;2023-07-24T09:00:47;4.55;;;4.15;;
64619;SDS011;51029;51.058;13.826;2023-07-24T09:03:13;5.00;;;4.50;;
64619;SDS011;51029;51.058;13.826;2023-07-24T09:05:39;5.00;;;4.50;;
64619;SDS011;51029;51.058;13.826;2023-07-24T09:08:04;7.50;;;4.68;;
64619;SDS011;51029;51.058;13.826;2023-07-24T09:10:30;7.30;;;4.30;;
64619;SDS011;51029;51.058;13.826;2023-07-24T09:12:55;5.13;;;3.95;;
64619;SDS011;51029;51.058;13.826;2023-07-24T09:15:21;5.95;;;4.70;;
64619;SDS011;51029;51.058;13.826;2023-07-24T09:17:50;6.07;;;4.22;;
64619;SDS011;51029;51.058;13.826;2023-07-24T09:20:16;5.13;;;4.40;;
64619;SDS011;51029;51.058;13.826;2023-07-24T09:22:49;4.95;;;4.45;;
64619;SDS011;51029;51.058;13.826;2023-07-24T09:25:18;5.00;;;4.50;;
64619;SDS011;51029;51.058;13.826;2023-07-24T09:27:54;6.47;;;4.60;;
64619;SDS011;51029;51.058;13.826;2023-07-24T09:30:19;5.50;;;4.82;;
64619;SDS011;51029;51.058;13.826;2023-07-24T09:32:51;5.25;;;4.55;;
64619;SDS011;51029;51.058;13.826;2023-07-24T09:35:20;5.90;;;4.50;;
64619;SDS011;51029;51.058;13.826;2023-07-24T09:38:00;7.80;;;4.85;;
64619;SDS011;51029;51.058;13.826;2023-07-24T09:40:45;5.53;;;4.80;;
64619;SDS011;51029;51.058;13.826;2023-07-24T09:43:18;5.78;;;4.60;;
64619;SDS011;51029;51.058;13.826;2023-07-24T09:45:46;5.72;;;4.72;;
64619;SDS011;51029;51.058;13.826;2023-07-24T09:48:12;6.80;;;4.85;;
64619;SDS011;51029;51.058;13.826;2023-07-24T09:50:40;6.90;;;4.93;;
64619;SDS011;51029;51.058;13.826;2023-07-24T09:53:08;6.47;;;5.55;;
64619;SDS011;51029;51.058;13.826;2023-07-24T09:55:43;6.40;;;4.93;;
64619;SDS011;51029;51.058;13.826;2023-07-24T09:58:14;6.65;;;5.32;;
64619;SDS011;51029;51.058;13.826;2023-07-24T10:00:40;9.20;;;5.10;;
64619;SDS011;51029;51.058;13.826;2023-07-24T10:03:07;6.93;;;5.10;;
64619;SDS011;51029;51.058;13.826;2023-07-24T10:05:33;6.65;;;4.80;;
64619;SDS011;51029;51.058;13.826;2023-07-24T10:08:00;6.22;;;4.95;;
64619;SDS011;51029;51.058;13.826;2023-07-24T10:10:27;5.88;;;5.28;;
64619;SDS011;51029;51.058;13.826;2023-07-24T10:12:57;6.82;;;5.60;;
64619;SDS011;51029;51.058;13.826;2023-07-24T10:15:23;6.55;;;5.28;;
64619;SDS011;51029;51.058;13.826;2023-07-24T10:17:49;7.15;;;5.60;;
64619;SDS011;51029;51.058;13.826;2023-07-24T10:20:15;5.70;;;5.05;;
64619;SDS011;51029;51.058;13.826;2023-07-24T10:22:41;6.13;;;5.53;;
64619;SDS011;51029;51.058;13.826;2023-07-24T10:25:08;6.72;;;4.90;;
64619;SDS011;51029;51.058;13.826;2023-07-24T10:27:52;6.38;;;5.63;;
64619;SDS011;51029;51.058;13.826;2023-07-24T10:30:27;7.05;;;5.60;;
64619;SDS011;51029;51.058;13.826;2023-07-24T10:32:54;8.85;;;5.75;;
64619;SDS011;51029;51.058;13.826;2023-07-24T10:36:02;7.22;;;5.70;;
64619;SDS011;51029;51.058;13.826;2023-07-24T10:38:34;6.30;;;5.30;;
64619;SDS011;51029;51.058;13.826;2023-07-24T10:41:01;6.90;;;5.65;;
64619;SDS011;51029;51.058;13.826;2023-07-24T10:43:29;6.35;;;5.50;;
64619;SDS011;51029;51.058;13.826;2023-07-24T10:46:04;7.18;;;5.68;;
64619;SDS011;51029;51.058;13.826;2023-07-24T10:48:30;10.77;;;5.55;;
64619;SDS011;51029;51.058;13.826;2023-07-24T10:50:55;8.75;;;5.60;;
64619;SDS011;51029;51.058;13.826;2023-07-24T10:53:22;7.65;;;5.60;;
64619;SDS011;51029;51.058;13.826;2023-07-24T10:55:48;7.28;;;5.40;;
64619;SDS011;51029;51.058;13.826;2023-07-24T10:58:19;9.07;;;5.78;;
64619;SDS011;51029;51.058;13.826;2023-07-24T11:00:45;9.13;;;6.63;;
64619;SDS011;51029;51.058;13.826;2023-07-24T11:03:12;8.10;;;6.30;;
64619;SDS011;51029;51.058;13.826;2023-07-24T11:05:39;7.03;;;6.20;;
64619;SDS011;51029;51.058;13.826;2023-07-24T11:08:13;7.77;;;6.50;;
64619;SDS011;51029;51.058;13.826;2023-07-24T11:10:50;8.93;;;6.97;;
64619;SDS011;51029;51.058;13.826;2023-07-24T11:13:18;8.57;;;6.70;;
64619;SDS011;51029;51.058;13.826;2023-07-24T11:15:45;8.07;;;6.40;;
64619;SDS011;51029;51.058;13.826;2023-07-24T11:18:11;9.27;;;6.67;;
64619;SDS011;51029;51.058;13.826;2023-07-24T11:20:38;9.63;;;6.70;;
64619;SDS011;51029;51.058;13.826;2023-07-24T11:23:08;6.85;;;5.88;;
64619;SDS011;51029;51.058;13.826;2023-07-24T11:25:35;7.90;;;6.32;;
64619;SDS011;51029;51.058;13.826;2023-07-24T11:28:00;8.48;;;6.43;;
64619;SDS011;51029;51.058;13.826;2023-07-24T11:30:27;7.10;;;6.25;;
64619;SDS011;51029;51.058;13.826;2023-07-24T11:32:53;7.50;;;6.68;;
64619;SDS011;51029;51.058;13.826;2023-07-24T11:35:19;7.07;;;6.18;;
64619;SDS011;51029;51.058;13.826;2023-07-24T11:37:46;7.10;;;6.35;;
64619;SDS011;51029;51.058;13.826;2023-07-24T11:40:12;7.45;;;6.45;;
64619;SDS011;51029;51.058;13.826;2023-07-24T11:42:40;7.22;;;6.38;;
64619;SDS011;51029;51.058;13.826;2023-07-24T11:45:08;8.07;;;6.25;;
64619;SDS011;51029;51.058;13.826;2023-07-24T11:47:44;7.22;;;6.05;;
64619;SDS011;51029;51.058;13.826;2023-07-24T11:50:11;9.32;;;6.53;;
64619;SDS011;51029;51.058;13.826;2023-07-24T11:52:41;6.78;;;6.03;;
64619;SDS011;51029;51.058;13.826;2023-07-24T11:55:11;7.63;;;6.38;;
64619;SDS011;51029;51.058;13.826;2023-07-24T11:57:37;7.60;;;6.40;;
64619;SDS011;51029;51.058;13.826;2023-07-24T12:00:04;8.30;;;6.65;;
64619;SDS011;51029;51.058;13.826;2023-07-24T12:02:31;8.15;;;6.22;;
64619;SDS011;51029;51.058;13.826;2023-07-24T12:04:58;9.50;;;6.68;;
64619;SDS011;51029;51.058;13.826;2023-07-24T12:07:28;8.38;;;5.88;;
64619;SDS011;51029;51.058;13.826;2023-07-24T12:09:56;8.55;;;6.55;;
64619;SDS011;51029;51.058;13.826;2023-07-24T12:12:21;9.05;;;6.43;;
64619;SDS011;51029;51.058;13.826;2023-07-24T12:14:47;7.93;;;6.72;;
64619;SDS011;51029;51.058;13.826;2023-07-24T12:17:17;8.25;;;6.78;;
64619;SDS011;51029;51.058;13.826;2023-07-24T12:19:43;10.93;;;7.22;;
64619;SDS011;51029;51.058;13.826;2023-07-24T12:22:09;10.10;;;7.10;;
64619;SDS011;51029;51.058;13.826;2023-07-24T12:24:34;8.05;;;6.38;;
64619;SDS011;51029;51.058;13.826;2023-07-24T12:27:00;7.70;;;6.72;;
64619;SDS011;51029;51.058;13.826;2023-07-24T12:29:25;9.32;;;6.95;;
64619;SDS011;51029;51.058;13.826;2023-07-24T12:31:51;10.05;;;7.28;;
64619;SDS011;51029;51.058;13.826;2023-07-24T12:34:16;9.77;;;7.17;;
64619;SDS011;51029;51.058;13.826;2023-07-24T12:36:42;13.85;;;10.25;;
64619;SDS011;51029;51.058;13.826;2023-07-24T12:39:08;10.03;;;9.03;;
64619;SDS011;51029;51.058;13.826;2023-07-24T12:41:34;8.85;;;7.68;;
64619;SDS011;51029;51.058;13.826;2023-07-24T12:43:59;10.10;;;7.60;;
64619;SDS011;51029;51.058;13.826;2023-07-24T12:46:25;8.63;;;7.73;;
64619;SDS011;51029;51.058;13.826;2023-07-24T12:48:50;8.63;;;7.30;;
64619;SDS011;51029;51.058;13.826;2023-07-24T12:51:16;9.40;;;7.20;;
64619;SDS011;51029;51.058;13.826;2023-07-24T12:53:41;8.40;;;6.90;;
64619;SDS011;51029;51.058;13.826;2023-07-24T12:56:07;10.57;;;8.00;;
64619;SDS011;51029;51.058;13.826;2023-07-24T12:58:32;9.80;;;7.43;;
64619;SDS011;51029;51.058;13.826;2023-07-24T13:00:58;9.63;;;7.33;;
64619;SDS011;51029;51.058;13.826;2023-07-24T13:03:23;10.63;;;7.47;;
64619;SDS011;51029;51.058;13.826;2023-07-24T13:05:49;9.57;;;6.53;;
64619;SDS011;51029;51.058;13.826;2023-07-24T13:08:14;9.13;;;6.97;;
64619;SDS011;51029;51.058;13.826;2023-07-24T13:10:40;10.70;;;7.17;;
64619;SDS011;51029;51.058;13.826;2023-07-24T13:13:05;11.40;;;7.33;;
64619;SDS011;51029;51.058;13.826;2023-07-24T13:15:31;9.80;;;7.20;;
64619;SDS011;51029;51.058;13.826;2023-07-24T13:17:57;10.10;;;7.83;;
64619;SDS011;51029;51.058;13.826;2023-07-24T13:20:24;12.27;;;7.87;;
64619;SDS011;51029;51.058;13.826;2023-07-24T13:22:50;14.13;;;8.93;;
64619;SDS011;51029;51.058;13.826;2023-07-24T13:25:15;9.47;;;7.80;;
64619;SDS011;51029;51.058;13.826;2023-07-24T13:27:41;10.47;;;7.57;;
64619;SDS011;51029;51.058;13.826;2023-07-24T13:30:07;12.53;;;7.73;;
64619;SDS011;51029;51.058;13.826;2023-07-24T13:32:32;10.30;;;7.27;;
64619;SDS011;51029;51.058;13.826;2023-07-24T13:34:58;11.23;;;7.30;;
64619;SDS011;51029;51.058;13.826;2023-07-24T13:37:25;8.83;;;7.33;;
64619;SDS011;51029;51.058;13.826;2023-07-24T13:39:51;11.53;;;7.50;;
64619;SDS011;51029;51.058;13.826;2023-07-24T13:42:16;10.43;;;6.80;;
64619;SDS011;51029;51.058;13.826;2023-07-24T13:44:42;8.43;;;6.90;;
64619;SDS011;51029;51.058;13.826;2023-07-24T13:47:07;8.93;;;6.80;;
64619;SDS011;51029;51.058;13.826;2023-07-24T13:49:33;9.33;;;7.20;;
64619;SDS011;51029;51.058;13.826;2023-07-24T13:51:58;7.35;;;6.50;;
64619;SDS011;51029;51.058;13.826;2023-07-24T13:54:24;9.10;;;7.03;;
64619;SDS011;51029;51.058;13.826;2023-07-24T13:56:49;9.70;;;6.18;;
64619;SDS011;51029;51.058;13.826;2023-07-24T13:59:15;7.60;;;6.50;;
64619;SDS011;51029;51.058;13.826;2023-07-24T14:01:40;7.72;;;6.70;;
64619;SDS011;51029;51.058;13.826;2023-07-24T14:04:06;8.75;;;6.00;;
64619;SDS011;51029;51.058;13.826;2023-07-24T14:06:32;8.07;;;7.15;;
64619;SDS011;51029;51.058;13.826;2023-07-24T14:08:57;8.02;;;6.65;;
64619;SDS011;51029;51.058;13.826;2023-07-24T14:11:23;15.63;;;14.10;;
64619;SDS011;51029;51.058;13.826;2023-07-24T14:13:49;8.57;;;7.30;;
64619;SDS011;51029;51.058;13.826;2023-07-24T14:16:15;5.60;;;4.93;;
64619;SDS011;51029;51.058;13.826;2023-07-24T14:18:41;6.82;;;5.22;;
64619;SDS011;51029;51.058;13.826;2023-07-24T14:21:06;6.28;;;4.78;;
64619;SDS011;51029;51.058;13.826;2023-07-24T14:23:32;5.82;;;4.25;;
64619;SDS011;51029;51.058;13.826;2023-07-24T14:25:57;5.35;;;4.85;;
64619;SDS011;51029;51.058;13.826;2023-07-24T14:28:23;5.25;;;4.63;;
64619;SDS011;51029;51.058;13.826;2023-07-24T14:30:48;4.57;;;4.07;;